Vohburg — V2OW7 — position and weather

sailwx.info

Track history (hours):
 
Tides and Currents Weather Stations Pressure Air Temp Water Temp Dewpoint Dewpoint Depression Visibility Wind Speed Wind Dir Waves Ship Positions

Vohburg

Last reported at 2015-Mar-01 07:32 UTC. Time now 2015-Mar-02 23:10 UTC.
Position N 59°35' E 023°04'.

Length 140 m; draft 6.8 m.

Type: Ship (hazmat cat A). MMSI: 305773000.

Date/timePositionNaut miles runAvg speedWind from/ knotsBaromVisibWave heightAir tempDewpointWater temp
2015-Mar-01 07:32N 59°35' E 023°04'1717.0
2015-Mar-01 06:33N 59°39' E 023°36'1717.1
2015-Mar-01 05:33N 59°44' E 024°09'1717.3
2015-Mar-01 04:33N 59°48' E 024°42'3717.3
2015-Mar-01 02:24N 59°57' E 025°55'1417.2
2015-Mar-01 01:34N 59°60' E 026°23'1817.1
2015-Mar-01 00:30N 59°59' E 026°59'  
2015-Feb-26 01:21N 59°58' E 027°02'1417.1
2015-Feb-26 00:33N 59°59' E 026°35'4313.7
2015-Feb-25 21:24N 60°05' E 025°10'7 8.9
2015-Feb-25 20:33N 60°13' E 025°11'0 0.0
2015-Feb-25 19:33N 60°13' E 025°11'0 0.0
2015-Feb-25 18:33N 60°13' E 025°11'0 0.0
2015-Feb-25 17:30N 60°13' E 025°11'0 0.0
2015-Feb-25 16:33N 60°13' E 025°11'0 0.0
2015-Feb-25 15:33N 60°13' E 025°11'0 0.0
2015-Feb-25 14:33N 60°13' E 025°11'0 0.0
2015-Feb-25 13:33N 60°13' E 025°11'0 0.0
2015-Feb-25 12:33N 60°13' E 025°11'4 4.5
2015-Feb-25 11:33N 60°08' E 025°12'2215.5
2015-Feb-25 10:09N 59°48' E 024°54'1016.8
2015-Feb-25 09:33N 59°45' E 024°36'1917.0
2015-Feb-25 08:26N 59°40' E 023°59'1517.1
2015-Feb-25 07:33N 59°35' E 023°31'43011.3
2015-Feb-23 17:25N 54°41' E 013°52'1517.1
2015-Feb-23 16:33N 54°45' E 013°27'1717.1
2015-Feb-23 15:33N 54°45' E 012°57'1716.7
2015-Feb-23 14:33N 54°39' E 012°30'1716.7
2015-Feb-23 13:33N 54°26' E 012°12'1716.6
2015-Feb-23 12:33N 54°25' E 011°44'1716.8
2015-Feb-23 11:33N 54°33' E 011°18'75 8.3
2015-Feb-23 02:33N 54°04' E 009°19'6 6.1
2015-Feb-23 01:34N 53°58' E 009°16'6 5.6
2015-Feb-23 00:33N 53°54' E 009°10'3 3.2
2015-Feb-22 23:34N 53°53' E 009°05'1313.3
2015-Feb-22 22:33N 53°53' E 008°42'1413.9
2015-Feb-22 21:33N 53°59' E 008°22'1414.2
2015-Feb-22 20:33N 53°58' E 007°57'1716.6
2015-Feb-22 19:31N 53°54' E 007°29'6315.9
2015-Feb-22 15:34N 53°38' E 005°46'1616.2
2015-Feb-22 14:34N 53°33' E 005°20'1716.5
2015-Feb-22 13:34N 53°27' E 004°54'8015.8
2015-Feb-22 08:30N 52°16' E 003°52'1617.0
2015-Feb-22 07:34N 52°01' E 004°01'1413.8
2015-Feb-22 06:33N 51°54' E 004°20'3 3.3
2015-Feb-22 05:31N 51°53' E 004°25'0 0.0
2015-Feb-22 04:31N 51°53' E 004°25'0 0.0
2015-Feb-22 03:31N 51°53' E 004°25'0 0.0
2015-Feb-22 02:31N 51°53' E 004°25'0 0.0
2015-Feb-22 01:31N 51°53' E 004°25'0 0.0
2015-Feb-22 00:31N 51°53' E 004°25'0 0.0
2015-Feb-21 23:31N 51°53' E 004°25'0 0.0
2015-Feb-21 22:31N 51°53' E 004°25'0 0.0
2015-Feb-21 21:31N 51°53' E 004°25'0 0.0
2015-Feb-21 20:31N 51°53' E 004°25'0 0.0
2015-Feb-21 19:31N 51°53' E 004°25'0 0.0
2015-Feb-21 18:28N 51°53' E 004°25'0 0.0
2015-Feb-21 17:31N 51°53' E 004°25'0 0.0
2015-Feb-21 16:31N 51°53' E 004°25'3 3.0
2015-Feb-21 15:33N 51°54' E 004°21'1010.2
2015-Feb-21 14:33N 51°59' E 004°06'9318.2
2015-Feb-21 09:28N 52°46' E 001°55'1920.7
2015-Feb-21 08:33N 52°57' E 001°30'13764.6
2015-Feb-21 06:26N 54°36' W 001°09'8089.1
2015-Feb-21 05:32N 53°39' E 000°28'2020.1
2015-Feb-21 04:33N 53°57' E 000°13'1919.5
2015-Feb-21 03:33N 54°14' W 000°04'1918.8
2015-Feb-21 02:33N 54°28' W 000°25'1717.1
2015-Feb-21 01:33N 54°38' W 000°49'12 1.4
2015-Feb-20 17:10N 54°38' W 001°09'811.3
2015-Feb-20 16:30N 54°40' W 000°57'1814.6
2015-Feb-20 15:17N 54°35' W 000°27'1115.9
2015-Feb-20 14:33N 54°33' W 000°08'1716.6
2015-Feb-20 13:33N 54°29' E 000°20'16515.8
2015-Feb-20 03:09N 54°00' E 004°58'914.6
2015-Feb-20 02:33N 53°58' E 005°12'1514.6
2015-Feb-20 01:33N 53°56' E 005°37'7014.1
2015-Feb-19 20:33N 54°01' E 007°36'1414.4
2015-Feb-19 19:34N 54°01' E 008°00'1414.4
2015-Feb-19 18:33N 53°59' E 008°25'1716.9
2015-Feb-19 17:33N 53°50' E 008°49'1211.9
2015-Feb-19 16:33N 53°54' E 009°09'6 5.7
2015-Feb-19 15:33N 53°58' E 009°15'27 6.3
2015-Feb-19 11:13N 54°20' E 009°44'5 7.9
2015-Feb-19 10:33N 54°22' E 009°52'7 6.7
2015-Feb-19 09:33N 54°22' E 010°03'2 1.8
2015-Feb-19 08:33N 54°22' E 010°06'2 1.5
2015-Feb-19 07:33N 54°22' E 010°09'  
Track history (hours):
 
Tides and Currents Weather Stations Pressure Air Temp Water Temp Dewpoint Dewpoint Depression Visibility Wind Speed Wind Dir Waves Ship Positions

Vohburg

Last reported at 2015-Mar-01 07:32 UTC. Time now 2015-Mar-02 23:10 UTC.
Position N 59°35' E 023°04'.

Length 140 m; draft 6.8 m.

Type: Ship (hazmat cat A). MMSI: 305773000.

Date/timePositionNaut miles runAvg speedWind from/ knotsBaromVisibWave heightAir tempDewpointWater temp
2015-Mar-01 07:32N 59°35' E 023°04'1717.0
2015-Mar-01 06:33N 59°39' E 023°36'1717.1
2015-Mar-01 05:33N 59°44' E 024°09'1717.3
2015-Mar-01 04:33N 59°48' E 024°42'3717.3
2015-Mar-01 02:24N 59°57' E 025°55'1417.2
2015-Mar-01 01:34N 59°60' E 026°23'1817.1
2015-Mar-01 00:30N 59°59' E 026°59'  
2015-Feb-26 01:21N 59°58' E 027°02'1417.1
2015-Feb-26 00:33N 59°59' E 026°35'4313.7
2015-Feb-25 21:24N 60°05' E 025°10'7 8.9
2015-Feb-25 20:33N 60°13' E 025°11'0 0.0
2015-Feb-25 19:33N 60°13' E 025°11'0 0.0
2015-Feb-25 18:33N 60°13' E 025°11'0 0.0
2015-Feb-25 17:30N 60°13' E 025°11'0 0.0
2015-Feb-25 16:33N 60°13' E 025°11'0 0.0
2015-Feb-25 15:33N 60°13' E 025°11'0 0.0
2015-Feb-25 14:33N 60°13' E 025°11'0 0.0
2015-Feb-25 13:33N 60°13' E 025°11'0 0.0
2015-Feb-25 12:33N 60°13' E 025°11'4 4.5
2015-Feb-25 11:33N 60°08' E 025°12'2215.5
2015-Feb-25 10:09N 59°48' E 024°54'1016.8
2015-Feb-25 09:33N 59°45' E 024°36'1917.0
2015-Feb-25 08:26N 59°40' E 023°59'1517.1
2015-Feb-25 07:33N 59°35' E 023°31'43011.3
2015-Feb-23 17:25N 54°41' E 013°52'1517.1
2015-Feb-23 16:33N 54°45' E 013°27'1717.1
2015-Feb-23 15:33N 54°45' E 012°57'1716.7
2015-Feb-23 14:33N 54°39' E 012°30'1716.7
2015-Feb-23 13:33N 54°26' E 012°12'1716.6
2015-Feb-23 12:33N 54°25' E 011°44'1716.8
2015-Feb-23 11:33N 54°33' E 011°18'75 8.3
2015-Feb-23 02:33N 54°04' E 009°19'6 6.1
2015-Feb-23 01:34N 53°58' E 009°16'6 5.6
2015-Feb-23 00:33N 53°54' E 009°10'3 3.2
2015-Feb-22 23:34N 53°53' E 009°05'1313.3
2015-Feb-22 22:33N 53°53' E 008°42'1413.9
2015-Feb-22 21:33N 53°59' E 008°22'1414.2
2015-Feb-22 20:33N 53°58' E 007°57'1716.6
2015-Feb-22 19:31N 53°54' E 007°29'6315.9
2015-Feb-22 15:34N 53°38' E 005°46'1616.2
2015-Feb-22 14:34N 53°33' E 005°20'1716.5
2015-Feb-22 13:34N 53°27' E 004°54'8015.8
2015-Feb-22 08:30N 52°16' E 003°52'1617.0
2015-Feb-22 07:34N 52°01' E 004°01'1413.8
2015-Feb-22 06:33N 51°54' E 004°20'3 3.3
2015-Feb-22 05:31N 51°53' E 004°25'0 0.0
2015-Feb-22 04:31N 51°53' E 004°25'0 0.0
2015-Feb-22 03:31N 51°53' E 004°25'0 0.0
2015-Feb-22 02:31N 51°53' E 004°25'0 0.0
2015-Feb-22 01:31N 51°53' E 004°25'0 0.0
2015-Feb-22 00:31N 51°53' E 004°25'0 0.0
2015-Feb-21 23:31N 51°53' E 004°25'0 0.0
2015-Feb-21 22:31N 51°53' E 004°25'0 0.0
2015-Feb-21 21:31N 51°53' E 004°25'0 0.0
2015-Feb-21 20:31N 51°53' E 004°25'0 0.0
2015-Feb-21 19:31N 51°53' E 004°25'0 0.0
2015-Feb-21 18:28N 51°53' E 004°25'0 0.0
2015-Feb-21 17:31N 51°53' E 004°25'0 0.0
2015-Feb-21 16:31N 51°53' E 004°25'3 3.0
2015-Feb-21 15:33N 51°54' E 004°21'1010.2
2015-Feb-21 14:33N 51°59' E 004°06'9318.2
2015-Feb-21 09:28N 52°46' E 001°55'1920.7
2015-Feb-21 08:33N 52°57' E 001°30'13764.6
2015-Feb-21 06:26N 54°36' W 001°09'8089.1
2015-Feb-21 05:32N 53°39' E 000°28'2020.1
2015-Feb-21 04:33N 53°57' E 000°13'1919.5
2015-Feb-21 03:33N 54°14' W 000°04'1918.8
2015-Feb-21 02:33N 54°28' W 000°25'1717.1
2015-Feb-21 01:33N 54°38' W 000°49'12 1.4
2015-Feb-20 17:10N 54°38' W 001°09'811.3
2015-Feb-20 16:30N 54°40' W 000°57'1814.6
2015-Feb-20 15:17N 54°35' W 000°27'1115.9
2015-Feb-20 14:33N 54°33' W 000°08'1716.6
2015-Feb-20 13:33N 54°29' E 000°20'16515.8
2015-Feb-20 03:09N 54°00' E 004°58'914.6
2015-Feb-20 02:33N 53°58' E 005°12'1514.6
2015-Feb-20 01:33N 53°56' E 005°37'7014.1
2015-Feb-19 20:33N 54°01' E 007°36'1414.4
2015-Feb-19 19:34N 54°01' E 008°00'1414.4
2015-Feb-19 18:33N 53°59' E 008°25'1716.9
2015-Feb-19 17:33N 53°50' E 008°49'1211.9
2015-Feb-19 16:33N 53°54' E 009°09'6 5.7
2015-Feb-19 15:33N 53°58' E 009°15'27 6.3
2015-Feb-19 11:13N 54°20' E 009°44'5 7.9
2015-Feb-19 10:33N 54°22' E 009°52'7 6.7
2015-Feb-19 09:33N 54°22' E 010°03'2 1.8
2015-Feb-19 08:33N 54°22' E 010°06'2 1.5
2015-Feb-19 07:33N 54°22' E 010°09'  

Dump ship's entire track history